createdAt,value
2023-06-20T00:00:21.691Z,10.68
2023-06-20T00:02:50.354Z,12.45
2023-06-20T00:05:19.380Z,10.27
2023-06-20T00:07:47.970Z,9.55
2023-06-20T00:10:16.494Z,10.20
2023-06-20T00:12:44.735Z,8.65
2023-06-20T00:15:13.412Z,13.73
2023-06-20T00:17:43.393Z,44.58
2023-06-20T00:20:12.438Z,54.33
2023-06-20T00:22:40.917Z,48.90
2023-06-20T00:25:10.067Z,42.92
2023-06-20T00:27:38.613Z,36.33
2023-06-20T00:30:10.164Z,35.88
2023-06-20T00:32:38.827Z,27.90
2023-06-20T00:35:09.430Z,23.73
2023-06-20T00:37:39.370Z,16.83
2023-06-20T00:40:09.235Z,15.00
2023-06-20T00:42:37.733Z,15.45
2023-06-20T00:45:30.297Z,14.00
2023-06-20T00:48:01.087Z,12.43
2023-06-20T00:50:31.726Z,10.82
2023-06-20T00:53:02.447Z,12.38
2023-06-20T00:55:32.870Z,8.75
2023-06-20T00:58:03.458Z,9.00
2023-06-20T01:00:34.700Z,9.68
2023-06-20T01:03:08.144Z,10.07
2023-06-20T01:05:39.123Z,9.82
2023-06-20T01:08:16.005Z,10.65
2023-06-20T01:11:09.570Z,9.82
2023-06-20T01:13:50.482Z,10.85
2023-06-20T01:16:30.488Z,11.15
2023-06-20T01:19:05.880Z,11.55
2023-06-20T01:21:43.878Z,11.63
2023-06-20T01:24:20.128Z,10.85
2023-06-20T01:26:55.044Z,11.07
2023-06-20T01:29:34.182Z,10.40
2023-06-20T01:32:07.559Z,10.43
2023-06-20T01:34:42.019Z,11.90
2023-06-20T01:37:16.421Z,12.45
2023-06-20T01:39:49.482Z,12.10
2023-06-20T01:42:20.939Z,11.85
2023-06-20T01:44:54.828Z,13.07
2023-06-20T01:47:25.448Z,11.27
2023-06-20T01:49:55.614Z,11.27
2023-06-20T01:52:26.291Z,10.93
2023-06-20T01:54:59.035Z,11.00
2023-06-20T01:57:29.816Z,10.55
2023-06-20T01:59:59.998Z,11.20
2023-06-20T02:02:30.873Z,10.07
2023-06-20T02:05:00.725Z,10.15
2023-06-20T02:07:32.265Z,9.57
2023-06-20T02:10:05.993Z,10.30
2023-06-20T02:12:37.711Z,9.52
2023-06-20T02:15:08.472Z,10.10
2023-06-20T02:17:39.379Z,9.43
2023-06-20T02:20:09.306Z,9.38
2023-06-20T02:22:38.941Z,10.15
2023-06-20T02:25:14.404Z,10.20
2023-06-20T02:27:44.663Z,10.93
2023-06-20T02:30:17.078Z,10.88
2023-06-20T02:35:19.994Z,9.82
2023-06-20T02:37:51.562Z,9.35
2023-06-20T02:40:25.994Z,9.48
2023-06-20T02:42:55.033Z,10.70
2023-06-20T02:45:23.984Z,10.80
2023-06-20T02:48:04.934Z,10.88
2023-06-20T02:50:44.248Z,10.45
2023-06-20T02:53:22.195Z,10.55
2023-06-20T02:55:59.449Z,10.20
2023-06-20T02:58:29.461Z,10.70
2023-06-20T03:01:01.557Z,10.38
2023-06-20T03:06:02.077Z,10.27
2023-06-20T03:08:32.096Z,11.73
2023-06-20T03:11:03.505Z,11.38
2023-06-20T03:13:32.433Z,10.65
2023-06-20T03:16:01.966Z,11.00
2023-06-20T03:18:32.110Z,11.23
2023-06-20T03:21:00.959Z,10.93
2023-06-20T03:23:29.470Z,11.30
2023-06-20T03:25:58.165Z,9.88
2023-06-20T03:28:28.425Z,10.15
2023-06-20T03:30:58.979Z,10.10
2023-06-20T03:33:29.446Z,10.20
2023-06-20T03:35:58.755Z,11.15
2023-06-20T03:38:27.846Z,10.65
2023-06-20T03:40:56.536Z,10.32
2023-06-20T03:43:26.073Z,10.98
2023-06-20T03:45:56.084Z,10.27
2023-06-20T03:48:24.461Z,9.48
2023-06-20T03:50:52.993Z,10.27
2023-06-20T03:53:21.838Z,9.90
2023-06-20T03:55:50.598Z,9.30
2023-06-20T03:58:19.855Z,9.02
2023-06-20T04:00:49.005Z,8.73
2023-06-20T04:03:19.192Z,9.07
2023-06-20T04:05:47.839Z,8.50
2023-06-20T04:08:16.350Z,8.57
2023-06-20T04:10:45.456Z,8.73
2023-06-20T04:13:16.937Z,8.40
2023-06-20T04:15:46.725Z,8.43
2023-06-20T04:18:15.556Z,8.77
2023-06-20T04:20:45.567Z,8.95
2023-06-20T04:23:14.513Z,9.38
2023-06-20T04:25:42.876Z,9.00
2023-06-20T04:28:12.423Z,9.77
2023-06-20T04:31:01.484Z,9.00
2023-06-20T04:33:30.803Z,10.10
2023-06-20T04:36:02.871Z,10.23
2023-06-20T04:38:38.535Z,11.18
2023-06-20T04:41:07.674Z,11.63
2023-06-20T04:43:37.040Z,12.85
2023-06-20T04:46:06.013Z,11.98
2023-06-20T04:48:37.000Z,12.18
2023-06-20T04:51:09.184Z,11.95
2023-06-20T04:53:38.311Z,11.02
2023-06-20T04:56:08.484Z,11.48
2023-06-20T04:58:38.192Z,11.48
2023-06-20T05:01:06.724Z,11.05
2023-06-20T05:03:35.444Z,10.43
2023-06-20T05:06:04.166Z,10.75
2023-06-20T05:08:34.138Z,9.65
2023-06-20T05:11:04.097Z,10.15
2023-06-20T05:13:33.839Z,10.75
2023-06-20T05:16:02.419Z,10.93
2023-06-20T05:18:30.935Z,10.80
2023-06-20T05:20:59.507Z,10.38
2023-06-20T05:23:29.010Z,10.23
2023-06-20T05:25:59.170Z,10.43
2023-06-20T05:28:27.781Z,11.30
2023-06-20T05:30:56.309Z,10.10
2023-06-20T05:33:25.750Z,10.43
2023-06-20T05:35:55.806Z,9.95
2023-06-20T05:38:24.844Z,10.85
2023-06-20T05:40:55.950Z,11.55
2023-06-20T05:43:25.972Z,10.25
2023-06-20T05:45:54.459Z,10.85
2023-06-20T05:48:25.318Z,10.07
2023-06-20T05:50:54.667Z,9.70
2023-06-20T05:53:24.574Z,9.48
2023-06-20T05:55:53.774Z,9.82
2023-06-20T05:58:22.521Z,9.25
2023-06-20T06:00:52.746Z,10.13
2023-06-20T06:03:21.343Z,9.10
2023-06-20T06:05:52.775Z,8.98
2023-06-20T06:08:21.784Z,8.38
2023-06-20T06:10:50.321Z,9.43
2023-06-20T06:13:18.819Z,9.63
2023-06-20T06:15:59.235Z,8.10
2023-06-20T06:18:31.801Z,9.05
2023-06-20T06:21:02.596Z,7.90
2023-06-20T06:23:31.971Z,8.60
2023-06-20T06:26:01.626Z,7.75
2023-06-20T06:28:30.385Z,7.35
2023-06-20T06:31:01.510Z,7.63
2023-06-20T06:33:31.561Z,7.13
2023-06-20T06:36:01.866Z,7.70
2023-06-20T06:38:30.422Z,6.78
2023-06-20T06:41:00.567Z,6.65
2023-06-20T06:43:29.126Z,6.50
2023-06-20T06:46:01.210Z,5.93
2023-06-20T06:48:29.735Z,6.22
2023-06-20T06:51:00.248Z,6.57
2023-06-20T06:53:28.759Z,5.80
2023-06-20T06:55:57.561Z,5.78
2023-06-20T06:58:26.250Z,6.03
2023-06-20T07:00:56.752Z,6.88
2023-06-20T07:03:25.800Z,6.43
2023-06-20T07:05:55.162Z,6.20
2023-06-20T07:08:25.380Z,6.05
2023-06-20T07:10:54.663Z,6.50
2023-06-20T07:13:25.682Z,6.72
2023-06-20T07:15:54.230Z,6.60
2023-06-20T07:18:22.742Z,6.20
2023-06-20T07:20:51.494Z,5.75
2023-06-20T07:23:20.012Z,6.22
2023-06-20T07:25:49.977Z,5.63
2023-06-20T07:28:18.605Z,5.80
2023-06-20T07:30:47.128Z,5.28
2023-06-20T07:33:15.713Z,5.13
2023-06-20T07:35:44.346Z,5.30
2023-06-20T07:38:12.856Z,4.97
2023-06-20T07:40:42.030Z,5.03
2023-06-20T07:43:12.110Z,4.43
2023-06-20T07:45:40.724Z,4.25
2023-06-20T07:48:09.245Z,3.78
2023-06-20T07:50:38.009Z,3.88
2023-06-20T07:53:06.803Z,4.05
2023-06-20T07:55:35.663Z,4.20
2023-06-20T07:58:05.443Z,4.18
2023-06-20T08:00:35.230Z,4.57
2023-06-20T08:03:03.952Z,3.72
2023-06-20T08:05:32.450Z,4.22
2023-06-20T08:08:01.038Z,3.50
2023-06-20T08:10:29.793Z,3.90
2023-06-20T08:12:58.300Z,4.05
2023-06-20T08:15:27.118Z,3.88
2023-06-20T08:17:57.221Z,4.00
2023-06-20T08:20:25.852Z,3.70
2023-06-20T08:22:54.135Z,3.92
2023-06-20T08:25:22.997Z,3.58
2023-06-20T08:27:56.258Z,3.63
2023-06-20T08:30:34.544Z,3.85
2023-06-20T08:33:04.880Z,4.05
2023-06-20T08:35:33.446Z,4.13
2023-06-20T08:38:01.959Z,3.72
2023-06-20T08:40:32.048Z,4.40
2023-06-20T08:43:00.718Z,4.28
2023-06-20T08:45:29.784Z,4.55
2023-06-20T08:47:59.952Z,4.13
2023-06-20T08:50:30.894Z,4.25
2023-06-20T08:53:03.098Z,4.55
2023-06-20T08:55:33.071Z,4.45
2023-06-20T08:58:04.502Z,4.32
2023-06-20T09:00:34.519Z,4.03
2023-06-20T09:03:05.909Z,4.47
2023-06-20T09:08:15.054Z,4.63
2023-06-20T09:10:45.239Z,4.55
2023-06-20T09:13:14.654Z,4.45
2023-06-20T09:15:43.585Z,4.72
2023-06-20T09:18:16.093Z,4.80
2023-06-20T09:20:46.888Z,4.20
2023-06-20T09:23:29.493Z,5.03
2023-06-20T09:25:58.633Z,4.93
2023-06-20T09:28:35.559Z,4.47
2023-06-20T09:31:04.352Z,4.63
2023-06-20T09:33:35.916Z,4.95
2023-06-20T09:36:16.765Z,4.70
2023-06-20T09:38:45.847Z,4.55
2023-06-20T09:41:18.266Z,4.78
2023-06-20T09:43:47.077Z,4.70
2023-06-20T09:46:15.899Z,4.55
2023-06-20T09:48:47.232Z,4.30
2023-06-20T09:51:17.521Z,4.30
2023-06-20T09:53:54.401Z,4.60
2023-06-20T09:56:23.955Z,3.75
2023-06-20T09:58:54.038Z,4.22
2023-06-20T10:01:23.806Z,4.50
2023-06-20T10:03:53.299Z,4.20
2023-06-20T10:06:24.142Z,4.65
2023-06-20T10:08:53.505Z,4.22
2023-06-20T10:11:23.772Z,4.47
2023-06-20T10:13:52.937Z,4.47
2023-06-20T10:16:21.602Z,4.20
2023-06-20T10:18:50.528Z,5.00
2023-06-20T10:21:39.012Z,4.13
2023-06-20T10:24:09.182Z,4.63
2023-06-20T10:26:37.917Z,4.88
2023-06-20T10:29:06.346Z,3.90
2023-06-20T10:32:05.432Z,4.47
2023-06-20T10:34:38.047Z,4.43
2023-06-20T10:37:35.863Z,4.32
2023-06-20T10:40:08.030Z,4.18
2023-06-20T10:42:41.228Z,4.63
2023-06-20T10:45:22.871Z,4.18
2023-06-20T10:50:21.375Z,3.72
2023-06-20T10:52:52.898Z,3.83
2023-06-20T10:55:27.693Z,4.18
2023-06-20T10:57:57.645Z,4.50
2023-06-20T11:00:27.005Z,4.25
2023-06-20T11:02:57.090Z,4.32
2023-06-20T11:05:27.636Z,4.50
2023-06-20T11:07:59.672Z,4.63
2023-06-20T11:10:31.985Z,4.70
2023-06-20T11:13:01.894Z,3.90
2023-06-20T11:15:31.803Z,4.78
2023-06-20T11:18:03.901Z,4.53
2023-06-20T11:20:36.658Z,4.68
2023-06-20T11:23:06.423Z,4.47
2023-06-20T11:25:38.239Z,4.47
2023-06-20T11:28:08.784Z,5.05
2023-06-20T11:30:38.626Z,4.50
2023-06-20T11:33:09.830Z,4.78
2023-06-20T11:35:49.752Z,5.63
2023-06-20T11:38:21.686Z,4.72
2023-06-20T11:41:03.170Z,4.43
2023-06-20T11:46:05.621Z,3.90
2023-06-20T11:48:34.823Z,4.93
2023-06-20T11:51:05.223Z,4.53
2023-06-20T11:53:36.046Z,4.68
2023-06-20T11:58:41.917Z,4.78
2023-06-20T12:01:12.425Z,4.17
2023-06-20T12:03:42.553Z,4.25
2023-06-20T12:06:31.161Z,4.28
2023-06-20T12:09:02.039Z,4.57
2023-06-20T12:11:33.244Z,4.30
2023-06-20T12:14:02.004Z,4.53
2023-06-20T12:16:30.852Z,4.40
2023-06-20T12:19:02.614Z,4.10
2023-06-20T12:21:31.207Z,4.55
2023-06-20T12:24:00.104Z,4.38
2023-06-20T12:26:28.752Z,4.43
2023-06-20T12:28:59.201Z,4.60
2023-06-20T12:31:27.839Z,4.45
2023-06-20T12:33:56.450Z,4.70
2023-06-20T12:36:25.007Z,4.70
2023-06-20T12:38:53.762Z,4.60
2023-06-20T12:41:23.031Z,4.35
2023-06-20T12:43:51.951Z,3.88
2023-06-20T12:46:22.087Z,4.10
2023-06-20T12:48:51.416Z,4.05
2023-06-20T12:51:19.707Z,3.88
2023-06-20T12:53:48.322Z,4.20
2023-06-20T12:56:17.338Z,3.97
2023-06-20T12:58:45.898Z,3.67
2023-06-20T13:01:14.598Z,4.25
2023-06-20T13:03:45.680Z,3.90
2023-06-20T13:06:16.991Z,3.58
2023-06-20T13:08:45.628Z,3.45
2023-06-20T13:11:15.057Z,4.07
2023-06-20T13:13:43.715Z,3.40
2023-06-20T13:16:12.250Z,3.83
2023-06-20T13:18:41.615Z,4.00
2023-06-20T13:21:11.598Z,4.07
2023-06-20T13:23:40.468Z,4.15
2023-06-20T13:26:10.111Z,3.42
2023-06-20T13:28:38.616Z,4.15
2023-06-20T13:31:07.257Z,4.10
2023-06-20T13:33:35.870Z,3.85
2023-06-20T13:36:04.450Z,3.92
2023-06-20T13:38:34.995Z,4.00
2023-06-20T13:41:03.748Z,3.27
2023-06-20T13:43:32.256Z,3.60
2023-06-20T13:46:01.457Z,3.95
2023-06-20T13:48:30.048Z,3.67
2023-06-20T13:50:59.058Z,3.75
2023-06-20T13:53:28.625Z,3.92
2023-06-20T13:55:59.103Z,4.07
2023-06-20T13:58:28.061Z,4.13
2023-06-20T14:00:56.868Z,3.97
2023-06-20T14:03:27.814Z,3.65
2023-06-20T14:05:57.736Z,3.83
2023-06-20T14:08:26.588Z,3.75
2023-06-20T14:10:55.458Z,3.90
2023-06-20T14:13:25.446Z,3.95
2023-06-20T14:15:54.119Z,3.85
2023-06-20T14:18:24.693Z,4.10
2023-06-20T14:20:53.133Z,3.92
2023-06-20T14:23:21.976Z,4.05
2023-06-20T14:25:52.338Z,4.13
2023-06-20T14:28:25.553Z,3.70
2023-06-20T14:30:56.212Z,3.72
2023-06-20T14:33:26.134Z,3.70
2023-06-20T14:35:54.701Z,4.05
2023-06-20T14:38:23.495Z,4.05
2023-06-20T14:40:52.016Z,3.83
2023-06-20T14:43:21.664Z,3.90
2023-06-20T14:45:50.137Z,3.42
2023-06-20T14:48:20.263Z,4.28
2023-06-20T14:50:49.271Z,4.05
2023-06-20T14:53:18.100Z,4.03
2023-06-20T14:55:46.986Z,4.32
2023-06-20T14:58:15.549Z,4.72
2023-06-20T15:00:44.236Z,4.40
2023-06-20T15:03:12.799Z,4.55
2023-06-20T15:05:46.517Z,4.35
2023-06-20T15:08:17.549Z,4.55
2023-06-20T15:10:46.195Z,4.43
2023-06-20T15:13:15.004Z,4.30
2023-06-20T15:15:43.876Z,4.18
2023-06-20T15:18:13.515Z,4.28
2023-06-20T15:20:43.772Z,4.35
2023-06-20T15:23:12.232Z,5.38
2023-06-20T15:25:40.639Z,4.20
2023-06-20T15:28:09.157Z,4.45
2023-06-20T15:30:40.449Z,4.35
2023-06-20T15:33:10.200Z,3.88
2023-06-20T15:35:43.061Z,4.50
2023-06-20T15:38:14.482Z,4.10
2023-06-20T15:40:43.942Z,4.25
2023-06-20T15:43:13.112Z,4.25
2023-06-20T15:45:42.504Z,4.55
2023-06-20T15:48:12.301Z,4.88
2023-06-20T15:50:41.592Z,4.32
2023-06-20T15:53:10.341Z,4.53
2023-06-20T15:55:40.439Z,4.63
2023-06-20T15:58:09.685Z,4.38
2023-06-20T16:00:39.951Z,4.88
2023-06-20T16:03:08.741Z,4.10
2023-06-20T16:05:38.967Z,4.60
2023-06-20T16:08:13.393Z,4.45
2023-06-20T16:10:46.579Z,4.80
2023-06-20T16:13:17.885Z,4.85
2023-06-20T16:15:46.785Z,4.68
2023-06-20T16:18:15.373Z,4.55
2023-06-20T16:20:44.476Z,4.53
2023-06-20T16:23:13.344Z,4.72
2023-06-20T16:25:41.841Z,4.78
2023-06-20T16:28:11.816Z,4.45
2023-06-20T16:30:40.488Z,4.35
2023-06-20T16:33:11.003Z,4.50
2023-06-20T16:35:40.696Z,4.50
2023-06-20T16:38:09.194Z,4.85
2023-06-20T16:40:37.815Z,4.72
2023-06-20T16:43:09.089Z,5.30
2023-06-20T16:45:39.335Z,4.65
2023-06-20T16:48:09.649Z,5.88
2023-06-20T16:50:38.431Z,4.60
2023-06-20T16:53:06.959Z,4.88
2023-06-20T16:55:36.355Z,4.75
2023-06-20T16:58:05.024Z,4.82
2023-06-20T17:00:33.592Z,4.53
2023-06-20T17:03:04.849Z,5.63
2023-06-20T17:05:34.243Z,4.53
2023-06-20T17:08:02.939Z,4.85
2023-06-20T17:10:31.799Z,4.40
2023-06-20T17:13:01.104Z,4.65
2023-06-20T17:15:29.808Z,4.90
2023-06-20T17:18:01.354Z,5.05
2023-06-20T17:20:31.817Z,4.78
2023-06-20T17:23:01.370Z,4.72
2023-06-20T17:25:29.977Z,5.53
2023-06-20T17:27:58.867Z,4.70
2023-06-20T17:30:27.484Z,4.97
2023-06-20T17:32:57.053Z,5.22
2023-06-20T17:35:25.787Z,5.13
2023-06-20T17:37:56.057Z,5.43
2023-06-20T17:40:24.755Z,4.63
2023-06-20T17:42:53.877Z,4.85
2023-06-20T17:45:22.995Z,5.50
2023-06-20T17:47:52.346Z,5.65
2023-06-20T17:50:21.200Z,5.97
2023-06-20T17:52:49.980Z,5.47
2023-06-20T17:55:20.343Z,5.55
2023-06-20T17:58:00.472Z,5.80
2023-06-20T18:00:30.995Z,6.32
2023-06-20T18:03:00.303Z,5.80
2023-06-20T18:05:29.116Z,11.88
2023-06-20T18:07:57.953Z,6.60
2023-06-20T18:10:28.442Z,6.18
2023-06-20T18:12:57.947Z,5.57
2023-06-20T18:15:27.514Z,5.97
2023-06-20T18:17:56.388Z,5.75
2023-06-20T18:20:26.538Z,6.13
2023-06-20T18:22:55.610Z,5.95
2023-06-20T18:25:24.306Z,7.07
2023-06-20T18:27:54.464Z,8.13
2023-06-20T18:30:24.081Z,6.63
2023-06-20T18:32:53.385Z,6.75
2023-06-20T18:35:23.404Z,7.05
2023-06-20T18:37:52.158Z,6.90
2023-06-20T18:40:20.668Z,9.43
2023-06-20T18:42:49.915Z,8.48
2023-06-20T18:45:20.348Z,7.50
2023-06-20T18:47:55.708Z,6.70
2023-06-20T18:50:28.649Z,7.15
2023-06-20T18:53:07.324Z,6.43
2023-06-20T18:55:37.200Z,7.07
2023-06-20T18:58:08.591Z,6.40
2023-06-20T19:00:43.614Z,6.70
2023-06-20T19:03:39.510Z,6.38
2023-06-20T19:06:15.060Z,5.93
2023-06-20T19:08:47.863Z,6.07
2023-06-20T19:11:18.766Z,6.38
2023-06-20T19:13:49.498Z,6.47
2023-06-20T19:16:22.788Z,6.70
2023-06-20T19:18:54.080Z,6.38
2023-06-20T19:21:23.762Z,5.80
2023-06-20T19:23:56.940Z,6.38
2023-06-20T19:26:26.385Z,6.70
2023-06-20T19:28:55.704Z,6.72
2023-06-20T19:31:26.198Z,6.55
2023-06-20T19:33:56.373Z,6.82
2023-06-20T19:36:26.075Z,7.20
2023-06-20T19:38:55.182Z,6.50
2023-06-20T19:41:28.182Z,7.38
2023-06-20T19:43:58.233Z,7.72
2023-06-20T19:46:29.103Z,8.02
2023-06-20T19:49:02.787Z,7.75
2023-06-20T19:51:33.548Z,7.90
2023-06-20T19:54:02.572Z,7.23
2023-06-20T19:56:34.142Z,6.72
2023-06-20T19:59:03.031Z,7.47
2023-06-20T20:01:33.062Z,7.65
2023-06-20T20:04:06.295Z,7.43
2023-06-20T20:06:35.400Z,7.40
2023-06-20T20:09:09.923Z,7.57
2023-06-20T20:11:40.452Z,8.05
2023-06-20T20:14:10.396Z,8.15
2023-06-20T20:16:41.347Z,8.15
2023-06-20T20:19:11.357Z,7.77
2023-06-20T20:21:41.756Z,8.48
2023-06-20T20:24:12.026Z,7.90
2023-06-20T20:26:40.880Z,8.00
2023-06-20T20:29:09.481Z,8.40
2023-06-20T20:31:40.255Z,8.38
2023-06-20T20:34:10.772Z,7.68
2023-06-20T20:36:40.222Z,8.50
2023-06-20T20:39:09.067Z,8.13
2023-06-20T20:41:38.651Z,7.93
2023-06-20T20:44:09.156Z,8.35
2023-06-20T20:46:38.244Z,8.18
2023-06-20T20:49:07.905Z,8.02
2023-06-20T20:51:40.563Z,8.00
2023-06-20T20:54:10.511Z,8.30
2023-06-20T20:56:39.756Z,7.68
2023-06-20T20:59:08.670Z,7.32
2023-06-20T21:01:37.669Z,7.85
2023-06-20T21:04:08.136Z,8.23
2023-06-20T21:06:39.756Z,7.43
2023-06-20T21:09:10.025Z,7.78
2023-06-20T21:11:39.717Z,7.40
2023-06-20T21:14:08.870Z,7.60
2023-06-20T21:16:37.885Z,8.65
2023-06-20T21:19:06.736Z,7.90
2023-06-20T21:21:35.531Z,7.82
2023-06-20T21:24:08.326Z,7.43
2023-06-20T21:26:37.096Z,7.93
2023-06-20T21:29:05.623Z,7.63
2023-06-20T21:31:34.753Z,8.15
2023-06-20T21:34:03.725Z,7.93
2023-06-20T21:36:32.397Z,7.78
2023-06-20T21:39:02.277Z,7.85
2023-06-20T21:41:33.307Z,7.55
2023-06-20T21:44:02.071Z,9.07
2023-06-20T21:46:34.269Z,8.05
2023-06-20T21:49:04.770Z,8.15
2023-06-20T21:51:33.758Z,7.78
2023-06-20T21:54:02.452Z,7.60
2023-06-20T21:56:32.610Z,7.47
2023-06-20T21:59:19.854Z,7.55
2023-06-20T22:01:49.258Z,7.20
2023-06-20T22:04:20.159Z,7.32
2023-06-20T22:06:49.612Z,7.25
2023-06-20T22:09:18.685Z,7.25
2023-06-20T22:11:48.839Z,7.93
2023-06-20T22:14:17.354Z,7.28
2023-06-20T22:16:47.979Z,7.13
2023-06-20T22:19:17.503Z,7.30
2023-06-20T22:21:46.537Z,7.10
2023-06-20T22:24:15.210Z,6.93
2023-06-20T22:26:49.877Z,7.45
2023-06-20T22:29:23.665Z,6.93
2023-06-20T22:31:55.681Z,7.10
2023-06-20T22:34:24.304Z,7.00
2023-06-20T22:36:57.920Z,7.32
2023-06-20T22:39:26.649Z,7.20
2023-06-20T22:41:55.171Z,7.28
2023-06-20T22:44:25.627Z,7.10
2023-06-20T22:46:55.845Z,7.75
2023-06-20T22:49:25.396Z,7.22
2023-06-20T22:51:54.681Z,7.15
2023-06-20T22:54:24.690Z,6.50
2023-06-20T22:56:53.927Z,7.30
2023-06-20T22:59:25.944Z,8.52
2023-06-20T23:01:56.193Z,9.53
2023-06-20T23:14:06.570Z,7.50
2023-06-20T23:16:36.981Z,7.25
2023-06-20T23:19:06.383Z,7.07
2023-06-20T23:21:34.945Z,6.70
2023-06-20T23:24:23.004Z,7.15
2023-06-20T23:26:51.784Z,6.75
2023-06-20T23:29:20.878Z,7.10
2023-06-20T23:31:51.278Z,6.82
2023-06-20T23:34:20.072Z,7.10
2023-06-20T23:36:49.980Z,7.03
2023-06-20T23:39:18.548Z,7.70
2023-06-20T23:41:48.957Z,8.88
2023-06-20T23:44:18.270Z,7.78
2023-06-20T23:46:47.885Z,8.23
2023-06-20T23:49:17.940Z,7.20
2023-06-20T23:51:46.658Z,7.43
2023-06-20T23:54:15.420Z,7.45
2023-06-20T23:56:43.899Z,7.55
2023-06-20T23:59:14.928Z,7.82
